Jacobs Creek, Pennsylvania
Current Conditions -  °F | °C
As of 4:53 PM on Tuesday 25 Nov 2014 (Local Time) from KAGC Reporting Station
Clear Clear  
Wind Chill: 40°   Ceiling: Unl
Heat Index: 44°   Visibility: 10mi
Dew Point: 25°   Wind: 7mph
Humidity: 47%   Direction: 310°NW
Pressure: 30.04"   Gusts: NA
Location:  40.13°N, 79.74°W
Report Text: KAGC 252153Z 31006KT 10SM CLR 07/M04 A3004 RMK AO2 SLP185 T00671039
Loading
Personal Weather Stations






























Interactive Weather Map New forecast layout! Learn more

10-Day Weather Forecast

Advertisements
Track Severe Weather on mobile